Big Bear Station Historical Data
Daily Summary for May 23, 2017 Units:  English    Metric   Both
« Previous Day
Next Day »
Daily Weekly Monthly Yearly Custom
  High: Low: Average:
Temperature: 81.5 °F 43.7 °F 62.1 °F
Dew Point: 46.2 °F 23.2 °F 35.5 °F
Humidity: 80 % 20 % 42 %
Wind Speed: 7.3 mph 0.0 mph 1.9 mph
Wind Gust: -999.0 mph - -
Wind:- - WSW
Pressure: 30.24 in 30.18 in -
Precipitation: 0.00 in    
Historical Graphs
 
 
Tabular Data for May 23, 2017
Time Temperature Dew Point Pressure Wind Wind Speed Wind Gust Humidity Rainfall Rate (Hourly)
00:06 52.2 °F 37.0 °F 30.23 in Calm   -999.0 mph 56 % 0 in
00:22 51.4 °F 38.8 °F 30.23 in Calm   -999.0 mph 62 % 0 in
00:37 50.7 °F 38.6 °F 30.23 in Calm   -999.0 mph 63 % 0 in
00:52 50.2 °F 37.3 °F 30.23 in Calm   -999.0 mph 61 % 0 in
01:07 49.6 °F 35.0 °F 30.23 in Calm   -999.0 mph 57 % 0 in
01:22 49.3 °F 33.8 °F 30.22 in Calm   -999.0 mph 55 % 0 in
01:38 48.7 °F 35.9 °F 30.22 in Calm   -999.0 mph 61 % 0 in
01:53 48.4 °F 35.2 °F 30.22 in Calm   -999.0 mph 60 % 0 in
02:08 47.8 °F 35.0 °F 30.22 in Calm   -999.0 mph 61 % 0 in
02:23 47.3 °F 33.7 °F 30.22 in Calm   -999.0 mph 59 % 0 in
02:38 47.1 °F 33.5 °F 30.22 in Calm   -999.0 mph 59 % 0 in
02:54 46.6 °F 35.5 °F 30.22 in Calm   -999.0 mph 65 % 0 in
03:09 46.4 °F 36.0 °F 30.21 in Calm   -999.0 mph 67 % 0 in
03:24 46.0 °F 35.3 °F 30.22 in Calm   -999.0 mph 66 % 0 in
03:39 46.0 °F 35.3 °F 30.22 in Calm   -999.0 mph 66 % 0 in
03:54 45.7 °F 35.0 °F 30.22 in Calm   -999.0 mph 66 % 0 in
04:10 45.5 °F 34.8 °F 30.22 in Calm   -999.0 mph 66 % 0 in
04:25 45.0 °F 35.1 °F 30.22 in Calm   -999.0 mph 68 % 0 in
04:40 45.0 °F 36.2 °F 30.22 in Calm   -999.0 mph 71 % 0 in
04:55 44.6 °F 34.7 °F 30.22 in Calm   -999.0 mph 68 % 0 in
05:10 44.6 °F 35.4 °F 30.22 in Calm   -999.0 mph 70 % 0 in
05:26 44.1 °F 35.3 °F 30.22 in Calm   -999.0 mph 71 % 0 in
05:41 44.2 °F 36.1 °F 30.22 in Calm   -999.0 mph 73 % 0 in
05:56 43.9 °F 35.8 °F 30.23 in Calm   -999.0 mph 73 % 0 in
06:11 43.9 °F 36.2 °F 30.23 in Calm   -999.0 mph 74 % 0 in
06:26 43.7 °F 37.0 °F 30.23 in Calm   -999.0 mph 77 % 0 in
06:42 45.0 °F 38.2 °F 30.23 in Calm   -999.0 mph 77 % 0 in
06:57 45.0 °F 38.9 °F 30.24 in Calm   -999.0 mph 79 % 0 in
07:12 45.5 °F 39.7 °F 30.24 in Calm   -999.0 mph 80 % 0 in
07:27 46.0 °F 40.2 °F 30.24 in Calm   -999.0 mph 80 % 0 in
07:43 47.1 °F 40.3 °F 30.24 in Calm   -999.0 mph 77 % 0 in
07:58 48.9 °F 41.3 °F 30.24 in Calm   -999.0 mph 75 % 0 in
08:13 50.9 °F 41.1 °F 30.24 in Calm   -999.0 mph 69 % 0 in
08:28 53.2 °F 40.5 °F 30.24 in Calm   -999.0 mph 62 % 0 in
08:43 55.8 °F 41.7 °F 30.24 in Calm   -999.0 mph 59 % 0 in
08:59 58.1 °F 42.9 °F 30.24 in Calm   -999.0 mph 57 % 0 in
09:14 61.2 °F 39.7 °F 30.24 in SE 1.7 mph -999.0 mph 45 % 0 in
09:29 63.7 °F 46.2 °F 30.24 in NW 2.7 mph -999.0 mph 53 % 0 in
09:44 68.9 °F 31.6 °F 30.24 in NW 2.2 mph -999.0 mph 25 % 0 in
10:00 70.5 °F 32.0 °F 30.24 in NW 4.2 mph -999.0 mph 24 % 0 in
10:15 71.1 °F 32.5 °F 30.23 in NW 1.7 mph -999.0 mph 24 % 0 in
10:30 71.2 °F 33.6 °F 30.24 in West 3.7 mph -999.0 mph 25 % 0 in
10:46 71.6 °F 33.9 °F 30.24 in NNW 2.7 mph -999.0 mph 25 % 0 in
11:01 72.9 °F 32.9 °F 30.24 in NW 4.2 mph -999.0 mph 23 % 0 in
11:16 75.0 °F 34.7 °F 30.24 in NNW 2.7 mph -999.0 mph 23 % 0 in
11:32 75.7 °F 34.2 °F 30.24 in West 4.7 mph -999.0 mph 22 % 0 in
11:47 76.8 °F 40.3 °F 30.23 in NW 4.2 mph -999.0 mph 27 % 0 in
12:02 77.5 °F 39.9 °F 30.23 in NNW 4.2 mph -999.0 mph 26 % 0 in
12:18 78.8 °F 39.0 °F 30.23 in NW 4.2 mph -999.0 mph 24 % 0 in
12:33 78.3 °F 37.5 °F 30.23 in WNW 7.3 mph -999.0 mph 23 % 0 in
12:49 79.5 °F 36.1 °F 30.23 in NNW 4.2 mph -999.0 mph 21 % 0 in
13:04 80.6 °F 39.4 °F 30.23 in NNW 4.2 mph -999.0 mph 23 % 0 in
13:19 81.0 °F 37.4 °F 30.22 in NW 2.7 mph -999.0 mph 21 % 0 in
13:34 80.8 °F 36.0 °F 30.22 in NNW 3.7 mph -999.0 mph 20 % 0 in
13:49 80.2 °F 39.0 °F 30.22 in NNE 4.7 mph -999.0 mph 23 % 0 in
14:05 80.1 °F 36.6 °F 30.22 in North 4.7 mph -999.0 mph 21 % 0 in
14:20 81.5 °F 37.8 °F 30.22 in NNW 4.2 mph -999.0 mph 21 % 0 in
14:35 80.4 °F 39.2 °F 30.21 in NNW 6.8 mph -999.0 mph 23 % 0 in
14:51 80.4 °F 35.7 °F 30.21 in NW 4.7 mph -999.0 mph 20 % 0 in
15:06 80.6 °F 35.8 °F 30.21 in ESE 4.2 mph -999.0 mph 20 % 0 in
15:21 80.8 °F 38.4 °F 30.21 in West 2.2 mph -999.0 mph 22 % 0 in
15:37 79.7 °F 37.5 °F 30.21 in SSW 3.2 mph -999.0 mph 22 % 0 in
15:52 79.2 °F 39.3 °F 30.20 in NW 5.3 mph -999.0 mph 24 % 0 in
16:07 78.3 °F 39.6 °F 30.20 in ESE 4.7 mph -999.0 mph 25 % 0 in
16:22 76.8 °F 38.3 °F 30.20 in NW 5.3 mph -999.0 mph 25 % 0 in
16:38 78.8 °F 39.0 °F 30.20 in WSW 5.8 mph -999.0 mph 24 % 0 in
16:53 79.3 °F 39.4 °F 30.20 in East 7.3 mph -999.0 mph 24 % 0 in
17:08 79.3 °F 40.4 °F 30.20 in SW 1.7 mph -999.0 mph 25 % 0 in
17:23 78.4 °F 40.7 °F 30.19 in NW 6.8 mph -999.0 mph 26 % 0 in
17:38 77.4 °F 41.7 °F 30.19 in East 5.3 mph -999.0 mph 28 % 0 in
17:54 77.4 °F 38.8 °F 30.19 in SSE 3.7 mph -999.0 mph 25 % 0 in
18:09 76.1 °F 37.7 °F 30.18 in NW 3.7 mph -999.0 mph 25 % 0 in
18:24 76.1 °F 37.7 °F 30.18 in NNW 4.2 mph -999.0 mph 25 % 0 in
18:39 76.1 °F 36.7 °F 30.18 in Calm   -999.0 mph 24 % 0 in
18:55 76.1 °F 35.6 °F 30.18 in North 2.7 mph -999.0 mph 23 % 0 in
19:10 72.9 °F 37.0 °F 30.18 in WSW 1.7 mph -999.0 mph 27 % 0 in
19:25 68.9 °F 38.6 °F 30.18 in NNE 1.7 mph -999.0 mph 33 % 0 in
19:40 66.2 °F 38.5 °F 30.18 in East 2.7 mph -999.0 mph 36 % 0 in
19:56 64.4 °F 36.1 °F 30.19 in Calm   -999.0 mph 35 % 0 in
20:11 63.0 °F 32.7 °F 30.19 in NNW 2.7 mph -999.0 mph 32 % 0 in
20:26 62.1 °F 31.1 °F 30.23 in ESE 1.7 mph -999.0 mph 31 % 0 in
20:56 60.4 °F 29.6 °F 30.23 in Calm   -999.0 mph 31 % 0 in
21:12 59.5 °F 28.0 °F 30.23 in SSE 1.7 mph -999.0 mph 30 % 0 in
21:27 58.8 °F 26.6 °F 30.23 in SSE 2.2 mph -999.0 mph 29 % 0 in
21:42 58.3 °F 24.4 °F 30.23 in ESE 1.7 mph -999.0 mph 27 % 0 in
21:57 58.1 °F 24.3 °F 30.23 in South 4.2 mph -999.0 mph 27 % 0 in
22:13 57.6 °F 25.6 °F 30.23 in SSE 1.7 mph -999.0 mph 29 % 0 in
22:28 56.8 °F 24.0 °F 30.23 in South 1.1 mph -999.0 mph 28 % 0 in
22:43 56.3 °F 24.4 °F 30.23 in Calm   -999.0 mph 29 % 0 in
22:58 55.6 °F 23.8 °F 30.23 in Calm   -999.0 mph 29 % 0 in
23:13 55.4 °F 23.6 °F 30.23 in South 1.1 mph -999.0 mph 29 % 0 in
23:29 54.9 °F 23.2 °F 30.23 in Calm   -999.0 mph 29 % 0 in
23:44 54.3 °F 23.5 °F 30.22 in Calm   -999.0 mph 30 % 0 in
23:59 53.6 °F 23.7 °F 30.22 in Calm   -999.0 mph 31 % 0 in
Big Bear CA Weather
Compliments of Weather Underground - 1.5 mb